»·PEaware :: N72C KBZN-KHLN

N72C :: KBZN-KHLN

FLIGHT INFORMATION

Flight Status: Arrived
Operator: Privately registered:
United States
More flights under this callsign
Pilot: Charles C. (26995)
Aircraft: SOCATA TBM-900
(TBM9)
More flights by this aircraft type
Origin: KBZN Gallatin
United States
Destination: KHLN Helena Regl
United States
More flights between these airports :: More routes between these airports
Route: BZN1 BZN V365 HLN
File this flight plan on PilotEdge
Remarks:
Altitude:
(Current/Filed)
10,000ft
Speed:
(Current/Filed)
260kts
Departed: 17-Oct-20 09:44 AM
Arrived: 17-Oct-20 10:28 AM
Distance/Time
Traveled:
60nm/0:44
Distance/Time
To Go:
Arrived

Flight Plot

Page will automatically refresh every two minutes.

Flight plan parsing failed; only flown route is shown


Map Options




Map Legend


Flown Route
Filed Route
Departure Airport
Arrival Airport
Navaid (VOR, NDB)
Fix

Horizontal Profiles

Position Reports

Time Latitude Longitude Heading Altitude Ground
Speed
17-Oct-20 09:23 45.773111 -111.152217 15 4462ft 0kts
17-Oct-20 09:24 45.773111 -111.152217 15 4462ft 0kts
17-Oct-20 09:25 45.773111 -111.152217 15 4462ft 0kts
17-Oct-20 09:26 45.773111 -111.152217 15 4462ft 0kts
17-Oct-20 09:27 45.773111 -111.152217 15 4462ft 0kts
17-Oct-20 09:28 45.773111 -111.152217 15 4462ft 0kts
17-Oct-20 09:29 45.773111 -111.152217 15 4462ft 0kts
17-Oct-20 09:30 45.773111 -111.152217 15 4462ft 0kts
17-Oct-20 09:31 45.773111 -111.152217 15 4462ft 0kts
17-Oct-20 09:32 45.773111 -111.152217 15 4462ft 0kts
17-Oct-20 09:33 45.773111 -111.152217 15 4462ft 0kts
17-Oct-20 09:34 45.773111 -111.152217 15 4462ft 0kts
17-Oct-20 09:35 45.773111 -111.152217 15 4462ft 0kts
17-Oct-20 09:36 45.774473 -111.151729 321 4459ft 18kts
17-Oct-20 09:37 45.780183 -111.159787 316 4448ft 30kts
17-Oct-20 09:38 45.783087 -111.163681 323 4442ft 11kts
17-Oct-20 09:39 45.786166 -111.167938 314 4433ft 0kts
17-Oct-20 09:40 45.786166 -111.167938 314 4433ft 0kts
17-Oct-20 09:41 45.786201 -111.167989 315 4433ft 4kts
17-Oct-20 09:42 45.787510 -111.165768 130 4431ft 0kts
17-Oct-20 09:43 45.770979 -111.138348 142 5410ft 126kts
17-Oct-20 09:44 45.742747 -111.123871 260 7313ft 128kts
17-Oct-20 09:45 45.754385 -111.179558 284 8782ft 161kts
17-Oct-20 09:46 45.750405 -111.247299 232 9956ft 192kts
17-Oct-20 09:47 45.719039 -111.320633 238 10001ft 235kts
17-Oct-20 09:48 45.684877 -111.408635 241 9990ft 251kts
17-Oct-20 09:49 45.663353 -111.504027 302 9971ft 246kts
17-Oct-20 09:50 45.721332 -111.482759 55 9980ft 246kts
17-Oct-20 09:51 45.741739 -111.386665 75 9990ft 246kts
17-Oct-20 09:52 45.759171 -111.291421 75 9990ft 247kts
17-Oct-20 09:53 45.776480 -111.196356 75 9990ft 247kts
17-Oct-20 09:54 45.830652 -111.181944 336 9997ft 244kts
17-Oct-20 09:55 45.893957 -111.218945 337 9990ft 245kts
17-Oct-20 09:56 45.957718 -111.256168 338 9990ft 245kts
17-Oct-20 09:57 46.021172 -111.293103 338 9990ft 245kts
17-Oct-20 09:58 46.084279 -111.329930 338 9990ft 245kts
17-Oct-20 09:59 46.147653 -111.367001 338 9991ft 245kts
17-Oct-20 10:00 46.211077 -111.404201 338 9997ft 245kts
17-Oct-20 10:01 46.274161 -111.441287 338 10008ft 245kts
17-Oct-20 10:02 46.335742 -111.477578 338 10015ft 236kts
17-Oct-20 10:04 46.396191 -111.513301 338 10024ft 233kts
17-Oct-20 10:05 46.453194 -111.554722 303 10024ft 231kts
17-Oct-20 10:06 46.484678 -111.635623 299 10044ft 229kts
17-Oct-20 10:07 46.515706 -111.716016 299 10044ft 226kts
17-Oct-20 10:08 46.546145 -111.795114 299 10039ft 214kts
17-Oct-20 10:09 46.572241 -111.863138 299 10030ft 175kts
17-Oct-20 10:10 46.594197 -111.920491 299 10019ft 145kts
17-Oct-20 10:11 46.606114 -111.970074 270 10112ft 152kts
17-Oct-20 10:12 46.606133 -112.041746 285 10044ft 187kts
17-Oct-20 10:13 46.637346 -112.027975 105 10049ft 186kts
17-Oct-20 10:14 46.607595 -111.966432 126 10046ft 187kts
17-Oct-20 10:15 46.591619 -111.895432 100 10045ft 185kts
17-Oct-20 10:16 46.582470 -111.820620 96 10053ft 194kts
17-Oct-20 10:17 46.573585 -111.741767 99 10042ft 196kts
17-Oct-20 10:18 46.552246 -111.674737 96 10049ft 187kts
17-Oct-20 10:19 46.545337 -111.599405 96 10045ft 187kts
17-Oct-20 10:20 46.575234 -111.577600 294 9930ft 162kts
17-Oct-20 10:21 46.564209 -111.637350 249 8757ft 150kts
17-Oct-20 10:22 46.565554 -111.697980 281 7472ft 154kts
17-Oct-20 10:22 46.572361 -111.745478 283 7433ft 139kts
17-Oct-20 10:24 46.583185 -111.815618 283 6286ft 152kts
17-Oct-20 10:24 46.590219 -111.859947 283 5609ft 113kts
17-Oct-20 10:26 46.593869 -111.909131 279 4565ft 100kts
17-Oct-20 10:26 46.599784 -111.942236 281 4239ft 104kts
17-Oct-20 10:27 46.604770 -111.974175 284 3848ft 31kts
17-Oct-20 10:28 46.604695 -111.980641 180 3855ft 14kts
17-Oct-20 10:29 46.603088 -111.983018 126 3859ft 0kts
17-Oct-20 10:30 46.603089 -111.983018 126 3859ft 0kts
17-Oct-20 10:31 46.603089 -111.983018 126 3859ft 0kts
17-Oct-20 10:32 46.603089 -111.983018 126 3859ft 0kts

Navigation Log

Ident Type
Flight plan parsing failed, navigation log unavailable